createdAt,value
2023-01-23T00:01:30.707Z,5.07
2023-01-23T00:03:58.588Z,4.72
2023-01-23T00:06:27.117Z,5.58
2023-01-23T00:08:56.692Z,2.80
2023-01-23T00:11:26.771Z,3.70
2023-01-23T00:13:54.191Z,4.49
2023-01-23T00:16:23.714Z,4.08
2023-01-23T00:18:52.196Z,4.66
2023-01-23T00:21:22.430Z,3.79
2023-01-23T00:23:55.253Z,2.54
2023-01-23T00:26:25.378Z,2.79
2023-01-23T00:28:53.508Z,3.00
2023-01-23T00:31:25.264Z,2.51
2023-01-23T00:33:58.774Z,2.75
2023-01-23T00:36:32.024Z,2.60
2023-01-23T00:39:00.279Z,2.58
2023-01-23T00:41:28.255Z,4.25
2023-01-23T00:43:55.695Z,2.89
2023-01-23T00:46:23.664Z,3.44
2023-01-23T00:48:51.457Z,4.00
2023-01-23T00:51:19.146Z,2.79
2023-01-23T00:53:46.984Z,3.45
2023-01-23T00:56:14.447Z,3.22
2023-01-23T00:58:44.088Z,3.42
2023-01-23T01:01:13.945Z,3.48
2023-01-23T01:03:42.361Z,3.84
2023-01-23T01:06:10.533Z,4.02
2023-01-23T01:08:38.725Z,5.60
2023-01-23T01:11:06.792Z,4.38
2023-01-23T01:13:34.505Z,4.19
2023-01-23T01:16:02.393Z,5.26
2023-01-23T01:18:30.151Z,4.47
2023-01-23T01:20:58.083Z,4.24
2023-01-23T01:23:26.057Z,4.26
2023-01-23T01:25:53.599Z,4.21
2023-01-23T01:28:21.450Z,4.23
2023-01-23T01:30:49.183Z,4.95
2023-01-23T01:33:16.655Z,4.70
2023-01-23T01:35:44.524Z,4.73
2023-01-23T01:38:12.821Z,4.69
2023-01-23T01:40:40.238Z,4.32
2023-01-23T01:43:15.615Z,4.75
2023-01-23T01:46:13.238Z,4.57
2023-01-23T01:49:17.157Z,4.87
2023-01-23T01:51:52.308Z,4.77
2023-01-23T01:54:19.614Z,5.04
2023-01-23T01:56:55.111Z,5.37
2023-01-23T01:59:24.372Z,4.67
2023-01-23T02:01:57.209Z,5.26
2023-01-23T02:04:25.201Z,4.95
2023-01-23T02:06:52.889Z,4.78
2023-01-23T02:09:26.026Z,4.74
2023-01-23T02:11:54.417Z,4.17
2023-01-23T02:14:25.730Z,3.82
2023-01-23T02:16:56.068Z,3.25
2023-01-23T02:19:39.067Z,3.70
2023-01-23T02:22:49.528Z,3.84
2023-01-23T02:25:22.221Z,3.61
2023-01-23T02:27:49.654Z,4.84
2023-01-23T02:30:18.769Z,4.17
2023-01-23T02:32:46.907Z,5.32
2023-01-23T02:35:25.495Z,4.55
2023-01-23T02:37:56.509Z,4.95
2023-01-23T02:40:36.551Z,3.75
2023-01-23T02:43:05.806Z,3.62
2023-01-23T02:45:34.448Z,4.05
2023-01-23T02:48:01.990Z,3.53
2023-01-23T02:50:29.724Z,3.74
2023-01-23T02:52:58.488Z,3.49
2023-01-23T02:55:33.889Z,3.57
2023-01-23T02:58:20.756Z,4.88
2023-01-23T03:00:49.709Z,4.13
2023-01-23T03:03:17.493Z,6.80
2023-01-23T03:05:44.947Z,4.99
2023-01-23T03:08:12.442Z,4.18
2023-01-23T03:10:40.184Z,4.72
2023-01-23T03:13:09.219Z,4.74
2023-01-23T03:15:38.514Z,3.72
2023-01-23T03:18:06.435Z,4.13
2023-01-23T03:20:41.278Z,3.84
2023-01-23T03:23:09.156Z,3.49
2023-01-23T03:25:36.570Z,3.73
2023-01-23T03:28:24.200Z,3.90
2023-01-23T03:30:52.205Z,4.34
2023-01-23T03:33:19.695Z,4.63
2023-01-23T03:35:47.299Z,4.77
2023-01-23T03:38:18.032Z,5.06
2023-01-23T03:41:04.295Z,4.76
2023-01-23T03:43:32.977Z,5.01
2023-01-23T03:46:00.428Z,4.66
2023-01-23T03:48:28.794Z,4.81
2023-01-23T03:50:56.744Z,5.09
2023-01-23T03:53:25.232Z,5.15
2023-01-23T03:55:53.312Z,5.20
2023-01-23T03:58:21.156Z,5.24
2023-01-23T04:00:48.911Z,4.70
2023-01-23T04:03:16.950Z,4.71
2023-01-23T04:05:44.366Z,4.58
2023-01-23T04:08:11.790Z,4.59
2023-01-23T04:10:39.623Z,5.10
2023-01-23T04:13:10.317Z,4.96
2023-01-23T04:15:38.358Z,5.18
2023-01-23T04:18:06.272Z,5.44
2023-01-23T04:20:33.797Z,6.17
2023-01-23T04:23:01.203Z,6.77
2023-01-23T04:25:29.830Z,5.22
2023-01-23T04:27:57.505Z,5.03
2023-01-23T04:30:25.420Z,5.20
2023-01-23T04:32:53.334Z,6.12
2023-01-23T04:35:20.873Z,6.05
2023-01-23T04:37:48.360Z,6.07
2023-01-23T04:40:17.263Z,6.60
2023-01-23T04:42:46.027Z,6.64
2023-01-23T04:45:13.824Z,7.33
2023-01-23T04:47:45.543Z,8.20
2023-01-23T04:50:13.954Z,8.82
2023-01-23T04:52:42.017Z,10.10
2023-01-23T04:55:09.990Z,9.89
2023-01-23T04:57:37.622Z,9.79
2023-01-23T05:00:06.093Z,10.42
2023-01-23T05:02:33.831Z,9.96
2023-01-23T05:05:01.921Z,10.25
2023-01-23T05:07:29.491Z,10.98
2023-01-23T05:09:58.161Z,10.86
2023-01-23T05:12:25.668Z,10.89
2023-01-23T05:14:53.154Z,10.73
2023-01-23T05:17:21.024Z,10.73
2023-01-23T05:19:48.501Z,9.86
2023-01-23T05:22:15.925Z,9.98
2023-01-23T05:24:44.209Z,10.47
2023-01-23T05:27:12.919Z,10.57
2023-01-23T05:29:40.582Z,10.88
2023-01-23T05:32:08.618Z,11.27
2023-01-23T05:34:39.239Z,12.02
2023-01-23T05:37:07.849Z,11.13
2023-01-23T05:39:35.566Z,11.05
2023-01-23T05:42:03.907Z,10.38
2023-01-23T05:44:31.836Z,10.77
2023-01-23T05:47:00.230Z,11.36
2023-01-23T05:49:27.937Z,11.10
2023-01-23T05:51:56.396Z,11.44
2023-01-23T05:54:24.405Z,11.04
2023-01-23T05:56:52.205Z,10.26
2023-01-23T05:59:34.960Z,10.49
2023-01-23T06:02:02.857Z,10.04
2023-01-23T06:04:34.764Z,9.66
2023-01-23T06:07:02.850Z,8.98
2023-01-23T06:09:30.523Z,8.98
2023-01-23T06:11:59.166Z,10.29
2023-01-23T06:14:26.735Z,10.96
2023-01-23T06:16:54.267Z,9.69
2023-01-23T06:19:22.264Z,9.57
2023-01-23T06:21:50.020Z,10.75
2023-01-23T06:24:18.687Z,12.11
2023-01-23T06:26:46.882Z,10.67
2023-01-23T06:29:14.375Z,11.06
2023-01-23T06:31:41.969Z,10.28
2023-01-23T06:34:09.881Z,10.57
2023-01-23T06:36:37.821Z,10.66
2023-01-23T06:39:05.298Z,11.81
2023-01-23T06:41:33.443Z,10.87
2023-01-23T06:44:01.638Z,11.54
2023-01-23T06:46:29.244Z,10.36
2023-01-23T06:48:57.175Z,10.23
2023-01-23T06:51:24.715Z,11.19
2023-01-23T06:53:52.294Z,10.33
2023-01-23T06:56:19.993Z,10.93
2023-01-23T06:58:48.761Z,9.70
2023-01-23T07:01:19.400Z,9.01
2023-01-23T07:03:50.258Z,9.23
2023-01-23T07:06:18.970Z,9.63
2023-01-23T07:08:46.900Z,9.59
2023-01-23T07:11:14.708Z,10.48
2023-01-23T07:13:42.177Z,10.58
2023-01-23T07:16:09.688Z,11.04
2023-01-23T07:18:38.321Z,10.49
2023-01-23T07:21:07.757Z,10.56
2023-01-23T07:23:35.336Z,11.23
2023-01-23T07:26:09.403Z,11.41
2023-01-23T07:28:37.559Z,10.87
2023-01-23T07:31:05.818Z,10.90
2023-01-23T07:33:33.800Z,10.95
2023-01-23T07:36:01.253Z,11.33
2023-01-23T07:38:29.031Z,10.86
2023-01-23T07:40:58.788Z,10.54
2023-01-23T07:43:27.089Z,10.49
2023-01-23T07:45:55.057Z,10.46
2023-01-23T07:48:22.484Z,10.86
2023-01-23T07:50:49.932Z,10.56
2023-01-23T07:53:17.796Z,10.73
2023-01-23T07:55:45.431Z,10.62
2023-01-23T07:58:12.861Z,10.91
2023-01-23T08:00:41.910Z,11.07
2023-01-23T08:03:09.688Z,10.62
2023-01-23T08:05:37.388Z,11.07
2023-01-23T08:08:13.168Z,10.68
2023-01-23T08:10:41.837Z,10.77
2023-01-23T08:13:09.527Z,10.89
2023-01-23T08:15:38.889Z,10.66
2023-01-23T08:18:06.937Z,10.96
2023-01-23T08:20:34.735Z,11.06
2023-01-23T08:23:02.467Z,10.69
2023-01-23T08:25:30.505Z,10.70
2023-01-23T08:27:58.297Z,11.05
2023-01-23T08:30:25.923Z,10.21
2023-01-23T08:32:54.155Z,10.69
2023-01-23T08:35:21.546Z,10.93
2023-01-23T08:37:49.030Z,10.59
2023-01-23T08:40:17.102Z,11.03
2023-01-23T08:42:44.530Z,11.61
2023-01-23T08:45:11.975Z,10.99
2023-01-23T08:47:39.742Z,11.08
2023-01-23T08:50:07.995Z,11.04
2023-01-23T08:52:35.790Z,10.65
2023-01-23T08:55:03.704Z,10.96
2023-01-23T08:57:31.445Z,10.79
2023-01-23T09:00:01.361Z,10.77
2023-01-23T09:02:35.692Z,11.23
2023-01-23T09:05:03.532Z,11.81
2023-01-23T09:07:31.436Z,11.85
2023-01-23T09:09:59.738Z,11.71
2023-01-23T09:12:27.251Z,12.22
2023-01-23T09:14:55.141Z,12.00
2023-01-23T09:17:22.602Z,11.76
2023-01-23T09:19:50.205Z,12.70
2023-01-23T09:22:18.199Z,11.59
2023-01-23T09:24:45.690Z,11.79
2023-01-23T09:27:13.575Z,11.93
2023-01-23T09:29:41.310Z,12.67
2023-01-23T09:32:09.307Z,12.49
2023-01-23T09:34:36.722Z,13.06
2023-01-23T09:37:04.592Z,12.71
2023-01-23T09:39:32.015Z,12.74
2023-01-23T09:42:08.447Z,12.53
2023-01-23T09:44:41.709Z,13.22
2023-01-23T09:47:16.437Z,13.14
2023-01-23T09:49:45.484Z,13.11
2023-01-23T09:52:23.449Z,13.07
2023-01-23T09:54:59.555Z,13.99
2023-01-23T09:57:45.774Z,13.47
2023-01-23T10:00:40.459Z,13.01
2023-01-23T10:03:14.315Z,13.22
2023-01-23T10:05:56.399Z,12.87
2023-01-23T10:08:34.205Z,12.63
2023-01-23T10:11:07.637Z,12.73
2023-01-23T10:13:59.736Z,12.85
2023-01-23T10:16:50.590Z,13.72
2023-01-23T10:19:42.997Z,13.22
2023-01-23T10:22:28.922Z,13.12
2023-01-23T10:24:57.718Z,13.62
2023-01-23T10:27:34.865Z,13.38
2023-01-23T10:30:21.388Z,13.88
2023-01-23T10:32:57.999Z,13.32
2023-01-23T10:35:37.010Z,14.16
2023-01-23T10:38:12.467Z,14.33
2023-01-23T10:40:58.915Z,14.03
2023-01-23T10:43:26.690Z,13.83
2023-01-23T10:45:54.596Z,13.81
2023-01-23T10:48:33.916Z,13.52
2023-01-23T10:51:01.643Z,14.23
2023-01-23T10:53:29.445Z,13.67
2023-01-23T10:55:59.671Z,13.84
2023-01-23T10:58:37.625Z,13.67
2023-01-23T11:01:06.609Z,13.62
2023-01-23T11:03:38.802Z,13.68
2023-01-23T11:06:07.157Z,14.17
2023-01-23T11:08:36.476Z,14.16
2023-01-23T11:11:17.568Z,13.55
2023-01-23T11:13:48.020Z,14.48
2023-01-23T11:16:18.818Z,14.67
2023-01-23T11:19:11.597Z,14.99
2023-01-23T11:22:00.368Z,15.02
2023-01-23T11:24:46.972Z,14.85
2023-01-23T11:27:14.651Z,15.32
2023-01-23T11:30:08.690Z,14.80
2023-01-23T11:32:43.430Z,14.26
2023-01-23T11:35:15.289Z,14.43
2023-01-23T11:37:42.830Z,14.48
2023-01-23T11:40:17.394Z,13.64
2023-01-23T11:42:45.688Z,14.92
2023-01-23T11:45:43.765Z,15.21
2023-01-23T11:48:29.941Z,14.58
2023-01-23T11:51:16.621Z,14.09
2023-01-23T11:54:07.998Z,13.96
2023-01-23T11:57:03.132Z,13.94
2023-01-23T11:59:45.221Z,14.00
2023-01-23T12:02:12.610Z,14.40
2023-01-23T12:04:58.827Z,14.92
2023-01-23T12:07:26.743Z,15.08
2023-01-23T12:10:03.653Z,14.76
2023-01-23T12:12:46.369Z,14.83
2023-01-23T12:15:20.762Z,14.26
2023-01-23T12:17:58.155Z,13.86
2023-01-23T12:20:39.474Z,13.71
2023-01-23T12:23:26.895Z,14.03
2023-01-23T12:26:12.820Z,14.13
2023-01-23T12:28:58.967Z,14.66
2023-01-23T12:31:53.377Z,14.62
2023-01-23T12:34:32.978Z,14.22
2023-01-23T12:37:30.426Z,14.23
2023-01-23T12:40:03.728Z,13.96
2023-01-23T12:42:38.715Z,13.78
2023-01-23T12:45:15.512Z,14.42
2023-01-23T12:48:00.179Z,14.20
2023-01-23T12:50:34.320Z,14.23
2023-01-23T12:53:25.980Z,14.87
2023-01-23T12:56:04.471Z,15.03
2023-01-23T12:58:36.360Z,14.66
2023-01-23T13:01:22.697Z,15.64
2023-01-23T13:03:58.406Z,15.34
2023-01-23T13:06:31.977Z,15.67
2023-01-23T13:09:24.632Z,15.85
2023-01-23T13:12:11.615Z,15.60
2023-01-23T13:15:06.772Z,15.59
2023-01-23T13:17:47.360Z,16.07
2023-01-23T13:20:40.355Z,15.21
2023-01-23T13:23:29.045Z,15.27
2023-01-23T13:26:15.276Z,15.78
2023-01-23T13:28:53.907Z,16.14
2023-01-23T13:31:34.359Z,15.41
2023-01-23T13:34:17.355Z,15.47
2023-01-23T13:36:53.145Z,15.84
2023-01-23T13:39:31.418Z,15.32
2023-01-23T13:42:14.622Z,15.46
2023-01-23T13:45:16.235Z,15.01
2023-01-23T14:22:35.522Z,14.97
2023-01-23T14:25:03.577Z,14.96
2023-01-23T14:27:53.230Z,14.78
2023-01-23T14:30:27.442Z,15.11
2023-01-23T14:32:55.307Z,15.69
2023-01-23T14:35:30.937Z,15.51
2023-01-23T14:38:01.528Z,15.34
2023-01-23T14:40:37.313Z,15.68
2023-01-23T14:43:23.193Z,15.58
2023-01-23T14:45:59.312Z,15.27
2023-01-23T14:48:27.258Z,15.26
2023-01-23T14:51:03.649Z,14.30
2023-01-23T14:53:31.381Z,14.94
2023-01-23T14:56:00.819Z,14.64
2023-01-23T14:58:29.042Z,13.98
2023-01-23T15:01:00.916Z,13.90
2023-01-23T15:03:43.909Z,13.63
2023-01-23T15:06:21.097Z,14.25
2023-01-23T15:08:49.839Z,14.73
2023-01-23T15:11:25.075Z,14.56
2023-01-23T15:14:01.414Z,13.75
2023-01-23T15:16:33.988Z,14.53
2023-01-23T15:19:22.100Z,14.45
2023-01-23T15:21:49.609Z,14.44
2023-01-23T15:24:29.588Z,14.32
2023-01-23T15:27:03.826Z,13.56
2023-01-23T15:29:32.477Z,14.22
2023-01-23T15:32:00.351Z,14.62
2023-01-23T15:34:31.060Z,14.09
2023-01-23T15:37:00.879Z,13.41
2023-01-23T15:39:31.525Z,13.33
2023-01-23T15:42:26.197Z,13.99
2023-01-23T15:44:53.982Z,14.34
2023-01-23T15:47:21.773Z,14.85
2023-01-23T15:49:49.408Z,14.33
2023-01-23T15:52:25.464Z,14.80
2023-01-23T15:55:04.719Z,14.28
2023-01-23T15:57:32.557Z,14.77
2023-01-23T16:00:01.302Z,15.22
2023-01-23T16:02:31.607Z,15.46
2023-01-23T16:05:01.864Z,15.03
2023-01-23T16:07:34.919Z,15.12
2023-01-23T16:10:04.714Z,15.85
2023-01-23T16:12:35.568Z,15.90
2023-01-23T16:15:06.372Z,16.06
2023-01-23T16:17:34.060Z,15.31
2023-01-23T16:20:01.600Z,15.51
2023-01-23T16:22:29.589Z,15.28
2023-01-23T16:24:57.881Z,15.88
2023-01-23T16:27:27.727Z,15.31
2023-01-23T16:29:56.267Z,15.66
2023-01-23T16:32:25.293Z,16.02
2023-01-23T16:34:52.912Z,16.00
2023-01-23T16:37:20.943Z,16.41
2023-01-23T16:39:48.504Z,16.15
2023-01-23T16:42:19.939Z,15.61
2023-01-23T16:44:47.864Z,16.07
2023-01-23T16:47:15.459Z,15.02
2023-01-23T16:49:51.964Z,15.67
2023-01-23T16:52:24.636Z,15.72
2023-01-23T16:54:53.453Z,15.43
2023-01-23T16:57:22.321Z,14.51
2023-01-23T16:59:51.019Z,14.51
2023-01-23T17:02:29.602Z,14.95
2023-01-23T17:04:57.655Z,14.99
2023-01-23T17:07:25.595Z,14.35
2023-01-23T17:09:54.224Z,15.89
2023-01-23T17:12:28.037Z,15.44
2023-01-23T17:14:56.777Z,16.01
2023-01-23T17:17:32.343Z,15.66
2023-01-23T17:20:02.094Z,15.68
2023-01-23T17:22:35.403Z,15.83
2023-01-23T17:25:03.827Z,15.81
2023-01-23T17:27:41.730Z,16.15
2023-01-23T17:30:24.190Z,16.02
2023-01-23T17:32:55.976Z,16.27
2023-01-23T17:35:27.972Z,16.40
2023-01-23T17:37:58.196Z,16.55
2023-01-23T17:40:26.960Z,15.24
2023-01-23T17:42:56.323Z,15.84
2023-01-23T17:45:27.495Z,16.20
2023-01-23T17:47:56.922Z,16.29
2023-01-23T17:50:28.965Z,16.12
2023-01-23T17:52:58.529Z,16.39
2023-01-23T17:55:33.874Z,16.32
2023-01-23T17:58:02.240Z,16.60
2023-01-23T18:00:32.124Z,16.58
2023-01-23T18:03:03.703Z,16.55
2023-01-23T18:05:32.531Z,17.17
2023-01-23T18:08:01.934Z,16.72
2023-01-23T18:10:30.372Z,16.25
2023-01-23T18:13:11.184Z,15.73
2023-01-23T18:15:56.974Z,14.00
2023-01-23T18:18:34.165Z,13.25
2023-01-23T18:21:05.321Z,13.84
2023-01-23T18:23:37.877Z,13.17
2023-01-23T18:26:30.966Z,13.76
2023-01-23T18:29:24.190Z,13.94
2023-01-23T18:32:25.320Z,12.88
2023-01-23T18:35:01.835Z,12.01
2023-01-23T18:37:52.968Z,12.48
2023-01-23T18:40:42.280Z,12.64
2023-01-23T18:43:44.298Z,10.74
2023-01-23T18:46:15.991Z,11.48
2023-01-23T18:48:47.506Z,12.09
2023-01-23T18:51:54.744Z,12.55
2023-01-23T18:54:32.826Z,11.12
2023-01-23T18:57:26.531Z,10.80
2023-01-23T19:00:24.892Z,11.48
2023-01-23T19:03:01.067Z,10.62
2023-01-23T19:05:32.898Z,10.57
2023-01-23T19:08:02.600Z,10.40
2023-01-23T19:10:47.603Z,10.43
2023-01-23T19:13:48.494Z,12.26
2023-01-23T19:16:30.992Z,12.14
2023-01-23T19:19:15.874Z,12.71
2023-01-23T19:21:46.457Z,11.92
2023-01-23T19:24:19.082Z,13.68
2023-01-23T19:26:48.260Z,13.26
2023-01-23T19:29:22.660Z,13.36
2023-01-23T19:32:09.201Z,12.56
2023-01-23T19:34:36.918Z,12.52
2023-01-23T19:37:08.121Z,11.40
2023-01-23T19:39:37.504Z,10.68
2023-01-23T19:42:12.310Z,11.57
2023-01-23T19:44:41.613Z,12.00
2023-01-23T19:47:11.169Z,11.21
2023-01-23T19:49:41.458Z,10.95
2023-01-23T19:52:14.851Z,10.60
2023-01-23T19:54:43.924Z,12.88
2023-01-23T19:57:14.854Z,10.47
2023-01-23T19:59:44.128Z,11.19
2023-01-23T20:02:25.194Z,10.50
2023-01-23T20:04:58.227Z,12.03
2023-01-23T20:07:27.374Z,11.38
2023-01-23T20:09:57.808Z,12.58
2023-01-23T20:12:27.501Z,12.00
2023-01-23T20:14:57.656Z,10.71
2023-01-23T20:17:31.289Z,9.62
2023-01-23T20:20:02.239Z,9.09
2023-01-23T20:22:31.015Z,10.17
2023-01-23T20:25:00.395Z,11.21
2023-01-23T20:27:29.436Z,11.97
2023-01-23T20:30:00.254Z,11.36
2023-01-23T20:32:32.758Z,10.71
2023-01-23T20:35:01.321Z,9.09
2023-01-23T20:37:30.809Z,8.93
2023-01-23T20:39:59.685Z,9.29
2023-01-23T20:42:28.350Z,8.93
2023-01-23T20:44:56.803Z,9.73
2023-01-23T20:47:27.452Z,10.91
2023-01-23T20:49:55.924Z,9.80
2023-01-23T20:52:44.385Z,9.80
2023-01-23T20:55:12.803Z,10.37
2023-01-23T20:57:59.834Z,11.13
2023-01-23T21:00:28.655Z,10.82
2023-01-23T21:02:57.350Z,11.17
2023-01-23T21:05:26.098Z,11.99
2023-01-23T21:07:55.479Z,11.60
2023-01-23T21:10:25.558Z,11.92
2023-01-23T21:12:56.450Z,11.94
2023-01-23T21:15:25.396Z,11.87
2023-01-23T21:17:53.329Z,11.59
2023-01-23T21:20:23.688Z,11.75
2023-01-23T21:22:54.657Z,12.32
2023-01-23T21:25:23.426Z,12.96
2023-01-23T21:27:51.604Z,12.44
2023-01-23T21:30:19.528Z,12.32
2023-01-23T21:32:49.221Z,12.11
2023-01-23T21:35:19.224Z,11.71
2023-01-23T21:37:46.821Z,12.18
2023-01-23T21:40:14.423Z,12.37
2023-01-23T21:42:42.699Z,13.43
2023-01-23T21:45:10.567Z,13.47
2023-01-23T21:47:37.981Z,14.36
2023-01-23T21:50:06.432Z,15.18
2023-01-23T21:52:33.839Z,14.49
2023-01-23T21:55:01.231Z,13.21
2023-01-23T21:57:28.976Z,13.29
2023-01-23T22:00:15.229Z,11.17
2023-01-23T22:02:42.981Z,11.03
2023-01-23T22:05:10.527Z,11.48
2023-01-23T22:07:37.968Z,9.95
2023-01-23T22:10:07.362Z,10.61
2023-01-23T22:12:34.815Z,10.72
2023-01-23T22:15:02.253Z,11.10
2023-01-23T22:17:30.404Z,12.06
2023-01-23T22:19:57.821Z,11.96
2023-01-23T22:22:26.296Z,13.04
2023-01-23T22:24:53.946Z,13.88
2023-01-23T22:27:23.264Z,13.71
2023-01-23T22:29:50.702Z,12.63
2023-01-23T22:32:18.578Z,10.43
2023-01-23T22:34:47.471Z,9.53
2023-01-23T22:37:15.236Z,8.77
2023-01-23T22:39:44.009Z,11.50
2023-01-23T22:42:11.405Z,11.87
2023-01-23T22:44:39.945Z,12.16
2023-01-23T22:47:08.796Z,11.96
2023-01-23T22:49:36.286Z,12.68
2023-01-23T22:52:03.834Z,13.15
2023-01-23T22:54:31.507Z,12.61
2023-01-23T22:56:58.926Z,12.89
2023-01-23T22:59:26.304Z,12.92
2023-01-23T23:01:54.018Z,11.58
2023-01-23T23:04:22.345Z,12.85
2023-01-23T23:06:49.737Z,13.25
2023-01-23T23:09:17.531Z,13.80
2023-01-23T23:11:47.450Z,14.52
2023-01-23T23:14:14.840Z,13.94
2023-01-23T23:16:42.603Z,14.02
2023-01-23T23:19:10.430Z,14.18
2023-01-23T23:21:38.266Z,14.22
2023-01-23T23:24:07.686Z,14.18
2023-01-23T23:26:35.169Z,14.13
2023-01-23T23:29:03.411Z,14.12
2023-01-23T23:31:31.417Z,14.26
2023-01-23T23:33:59.031Z,14.27
2023-01-23T23:36:26.819Z,14.39
2023-01-23T23:38:54.608Z,14.58
2023-01-23T23:41:22.310Z,14.06
2023-01-23T23:43:49.782Z,13.84
2023-01-23T23:46:18.041Z,14.00
2023-01-23T23:48:47.851Z,14.19
2023-01-23T23:51:17.279Z,13.84
2023-01-23T23:53:45.987Z,13.94
2023-01-23T23:56:28.013Z,14.08
2023-01-23T23:58:56.309Z,14.08
